Tarawa Terrace, North Carolina
Current Conditions -  °F | °C
As of 6:56 PM on Saturday 22 Nov 2014 (Local Time) from KNCA Reporting Station
Clear Clear  
Wind Chill: 43°   Ceiling: Unl
Heat Index: 43°   Visibility: 10mi
Dew Point: 38°   Wind: 0mph
Humidity: 82%   Direction: NA
Pressure: 30.39"   Gusts: NA
Location:  34.73°N, 77.38°W
Report Text: KNCA 222356Z AUTO 00000KT 10SM CLR 06/03 A3039 RMK AO2 SLP292 T00610033 10144 20056 58008 $
Loading
Personal Weather Stations






























Interactive Weather Map New forecast layout! Learn more

10-Day Weather Forecast

Advertisements
Track Severe Weather on mobile